Byron, Georgia
Current Conditions -  °F | °C
As of 10:53 PM on Thursday 18 Dec 2014 (Local Time) from KMCN Reporting Station
Clear Clear  
Wind Chill: 42°   Ceiling: Unl
Heat Index: 44°   Visibility: 10mi
Dew Point: 33°   Wind: 5mph
Humidity: 65%   Direction: 270°W
Pressure: 30.16"   Gusts: NA
Location:  32.65°N, 83.76°W
Report Text: KMCN 190353Z AUTO 27004KT 10SM CLR 07/01 A3016 RMK AO2 SLP212 T00670006 TSNO
Loading
Personal Weather Stations






























Interactive Weather Map New forecast layout! Learn more

10-Day Weather Forecast

Advertisements
Track Severe Weather on mobile